Oakdale, Connecticut
Current Conditions -  °F | °C
As of 12:03 PM on Tuesday 27 Jan 2015 (Local Time) from KGON Reporting Station
Haze Haze  
Wind Chill:   Ceiling: 2200
Heat Index: 21°   Visibility: 1mi
Dew Point: 16°   Wind: 21mph
Humidity: 81%   Direction: 340°NNW
Pressure: 29.52"   Gusts: 26mph
Location:  41.47°N, 72.16°W
Report Text: KGON 271703Z AUTO 34018G23KT 1SM R05/5000VP6000FT HZ BKN022 BKN026 OVC033 M06/M09 A2952 RMK AO2 T10611089 $
Loading
Personal Weather Stations






























Interactive Weather Map New forecast layout! Learn more

10-Day Weather Forecast

Advertisements
Track Severe Weather on mobile